createdAt,value
2019-02-27T06:39:35.282Z,3.80
2019-02-27T06:42:04.991Z,3.80
2019-02-27T06:44:36.632Z,3.80
2019-02-27T06:47:07.211Z,3.70
2019-02-27T06:49:36.925Z,3.70
2019-02-27T06:52:09.243Z,3.90
2019-02-27T06:54:39.050Z,4.10
2019-02-27T06:57:08.745Z,4.10
2019-02-27T06:59:39.118Z,4.10
2019-02-27T07:02:08.861Z,4.30
2019-02-27T07:04:39.482Z,4.40
2019-02-27T07:07:09.945Z,4.50
2019-02-27T07:09:39.855Z,4.60
2019-02-27T07:12:09.640Z,4.70
2019-02-27T07:14:39.951Z,4.80
2019-02-27T07:17:10.080Z,4.90
2019-02-27T07:19:42.764Z,5.20
2019-02-27T07:22:12.660Z,6.00
2019-02-27T07:24:42.611Z,6.70
2019-02-27T07:27:12.758Z,7.20
2019-02-27T07:29:42.992Z,7.70
2019-02-27T07:32:12.756Z,8.50
2019-02-27T07:34:42.714Z,9.60
2019-02-27T07:37:12.993Z,10.10
2019-02-27T07:39:43.353Z,10.30
2019-02-27T07:42:12.954Z,10.40
2019-02-27T07:44:42.507Z,10.50
2019-02-27T07:47:12.353Z,10.80
2019-02-27T07:49:42.296Z,11.10
2019-02-27T07:52:11.935Z,11.80
2019-02-27T07:54:41.233Z,12.80
2019-02-27T07:57:09.744Z,13.20
2019-02-27T07:59:39.809Z,14.20
2019-02-27T08:02:10.315Z,14.20
2019-02-27T08:04:40.039Z,14.40
2019-02-27T08:07:12.175Z,15.20
2019-02-27T08:09:43.050Z,15.10
2019-02-27T08:12:12.704Z,15.10
2019-02-27T08:14:42.633Z,15.30
2019-02-27T08:17:17.665Z,15.40
2019-02-27T08:19:45.352Z,15.40
2019-02-27T08:22:15.427Z,15.40
2019-02-27T08:24:45.111Z,15.40
2019-02-27T08:27:15.065Z,15.40
2019-02-27T08:29:45.130Z,16.10
2019-02-27T08:32:14.878Z,15.60
2019-02-27T08:34:44.625Z,15.80
2019-02-27T08:37:14.308Z,16.00
2019-02-27T08:39:43.972Z,17.30
2019-02-27T08:42:15.666Z,17.30
2019-02-27T08:44:45.793Z,17.20
2019-02-27T08:47:16.198Z,17.60
2019-02-27T08:49:45.834Z,17.50
2019-02-27T08:52:16.281Z,17.80
2019-02-27T08:54:46.311Z,18.20
2019-02-27T08:57:15.913Z,17.70
2019-02-27T08:59:45.616Z,18.10
2019-02-27T09:02:15.891Z,18.20
2019-02-27T09:04:46.286Z,19.20
2019-02-27T09:07:15.927Z,19.40
2019-02-27T09:09:45.906Z,18.60
2019-02-27T09:12:15.698Z,17.20
2019-02-27T09:14:45.823Z,17.80
2019-02-27T09:17:15.409Z,18.90
2019-02-27T09:19:46.408Z,19.50
2019-02-27T09:22:16.254Z,19.60
2019-02-27T09:24:45.958Z,19.70
2019-02-27T09:27:15.691Z,19.20
2019-02-27T09:29:45.306Z,19.20
2019-02-27T09:32:15.091Z,20.10
2019-02-27T09:34:44.793Z,20.40
2019-02-27T09:37:16.916Z,19.90
2019-02-27T09:39:46.184Z,20.60
2019-02-27T09:42:18.771Z,20.70
2019-02-27T09:44:47.951Z,21.30
2019-02-27T09:47:17.957Z,21.60
2019-02-27T09:49:47.768Z,20.30
2019-02-27T09:52:17.507Z,19.80
2019-02-27T09:54:47.608Z,19.30
2019-02-27T09:57:17.690Z,19.10
2019-02-27T09:59:47.428Z,19.20
2019-02-27T10:02:17.145Z,19.70
2019-02-27T10:04:47.122Z,19.30
2019-02-27T10:07:17.073Z,19.40
2019-02-27T10:09:47.391Z,18.50
2019-02-27T10:12:17.063Z,18.60
2019-02-27T10:14:47.889Z,18.00
2019-02-27T10:17:18.990Z,18.60
2019-02-27T10:19:48.675Z,18.80
2019-02-27T10:22:20.317Z,18.80
2019-02-27T10:24:49.681Z,18.90
2019-02-27T10:27:20.654Z,19.20
2019-02-27T10:29:51.064Z,19.70
2019-02-27T10:32:21.103Z,18.50
2019-02-27T10:34:53.550Z,18.40
2019-02-27T10:37:22.647Z,18.60
2019-02-27T10:39:52.433Z,18.20
2019-02-27T10:42:22.132Z,18.30
2019-02-27T10:44:52.338Z,18.30
2019-02-27T10:47:22.037Z,18.70
2019-02-27T10:49:51.839Z,17.80
2019-02-27T10:52:24.252Z,17.90
2019-02-27T10:54:52.841Z,17.70
2019-02-27T10:57:22.481Z,17.70
2019-02-27T10:59:52.179Z,17.80
2019-02-27T11:02:23.452Z,17.40
2019-02-27T11:04:53.229Z,17.10
2019-02-27T11:07:22.945Z,16.90
2019-02-27T11:09:52.849Z,17.00
2019-02-27T11:12:22.579Z,17.00
2019-02-27T11:14:52.510Z,16.80
2019-02-27T11:17:22.206Z,16.80
2019-02-27T11:19:51.951Z,17.00
2019-02-27T11:22:21.625Z,17.00
2019-02-27T11:24:52.474Z,16.90
2019-02-27T11:27:22.469Z,16.60
2019-02-27T11:29:52.298Z,16.70
2019-02-27T11:32:23.876Z,16.90
2019-02-27T11:34:53.700Z,17.00
2019-02-27T11:37:23.350Z,17.00
2019-02-27T11:39:53.089Z,17.00
2019-02-27T11:42:22.972Z,17.10
2019-02-27T11:44:52.737Z,17.10
2019-02-27T11:47:22.754Z,17.10
2019-02-27T11:49:52.721Z,17.10
2019-02-27T11:52:28.629Z,17.10
2019-02-27T11:54:57.972Z,17.20
2019-02-27T11:57:30.524Z,17.20
2019-02-27T11:59:59.019Z,17.20
2019-02-27T12:02:31.195Z,17.40
2019-02-27T12:05:00.459Z,17.40
2019-02-27T12:07:30.579Z,17.20
2019-02-27T12:10:00.355Z,17.20
2019-02-27T12:12:30.130Z,17.40
2019-02-27T12:14:59.868Z,17.30
2019-02-27T12:17:29.569Z,17.30
2019-02-27T12:19:59.271Z,17.40
2019-02-27T12:22:29.307Z,17.40
2019-02-27T12:24:58.990Z,17.50
2019-02-27T12:27:47.909Z,17.40
2019-02-27T12:30:02.750Z,17.50
2019-02-27T12:32:31.818Z,17.60
2019-02-27T12:35:03.080Z,17.50
2019-02-27T12:37:34.753Z,17.50
2019-02-27T12:40:05.285Z,17.80
2019-02-27T12:42:37.328Z,17.70
2019-02-27T12:45:08.086Z,17.80
2019-02-27T12:47:40.807Z,17.70
2019-02-27T12:50:10.735Z,17.70
2019-02-27T12:52:44.346Z,17.80
2019-02-27T12:55:12.812Z,17.80
2019-02-27T12:57:42.495Z,17.90
2019-02-27T13:00:15.680Z,18.00
2019-02-27T13:02:46.090Z,18.20
2019-02-27T13:05:16.464Z,18.10
2019-02-27T13:07:46.635Z,18.00
2019-02-27T13:10:17.880Z,17.90
2019-02-27T13:12:49.147Z,18.00
2019-02-27T13:15:22.419Z,18.10
2019-02-27T13:17:55.952Z,18.20
2019-02-27T13:20:25.486Z,18.30
2019-02-27T13:22:55.875Z,18.40
2019-02-27T13:25:25.692Z,18.20
2019-02-27T13:27:55.405Z,18.30
2019-02-27T13:30:25.180Z,18.20
2019-02-27T13:32:54.951Z,18.40
2019-02-27T13:35:25.084Z,18.60
2019-02-27T13:37:54.721Z,18.50
2019-02-27T13:40:24.509Z,18.50
2019-02-27T13:42:54.230Z,18.50
2019-02-27T13:45:24.988Z,18.50
2019-02-27T13:47:54.783Z,18.40
2019-02-27T13:50:26.802Z,18.30
2019-02-27T13:52:56.348Z,18.40
2019-02-27T13:55:26.132Z,18.50
2019-02-27T13:57:58.805Z,18.50
2019-02-27T14:00:28.953Z,18.50
2019-02-27T14:03:00.059Z,18.50
2019-02-27T14:05:32.574Z,18.50
2019-02-27T14:08:01.402Z,18.50
2019-02-27T14:10:31.196Z,18.50
2019-02-27T14:13:01.106Z,18.50
2019-02-27T14:15:31.726Z,18.50
2019-02-27T14:18:01.958Z,18.50
2019-02-27T14:20:31.948Z,18.60
2019-02-27T14:23:01.747Z,18.60
2019-02-27T14:25:33.445Z,18.50
2019-02-27T14:28:03.421Z,18.50
2019-02-27T14:30:36.617Z,18.50
2019-02-27T14:33:06.565Z,18.60
2019-02-27T14:35:36.735Z,18.50
2019-02-27T14:38:06.993Z,18.60
2019-02-27T14:40:39.513Z,18.60
2019-02-27T14:43:08.628Z,18.60
2019-02-27T14:45:40.662Z,18.60
2019-02-27T14:48:09.943Z,18.60
2019-02-27T14:50:40.221Z,18.60
2019-02-27T14:53:10.329Z,18.70
2019-02-27T14:55:39.955Z,18.80
2019-02-27T14:58:09.511Z,18.80
2019-02-27T15:00:41.004Z,18.80
2019-02-27T15:03:10.852Z,18.70
2019-02-27T15:05:44.730Z,18.60
2019-02-27T15:08:12.275Z,18.70
2019-02-27T15:10:42.369Z,18.60
2019-02-27T15:13:12.318Z,18.60
2019-02-27T15:15:43.699Z,18.70
2019-02-27T15:18:14.154Z,18.60
2019-02-27T15:20:44.052Z,18.60
2019-02-27T15:23:14.026Z,18.60
2019-02-27T15:25:43.630Z,18.50
2019-02-27T15:28:13.504Z,18.40
2019-02-27T15:30:46.450Z,18.40
2019-02-27T15:33:16.424Z,18.30
2019-02-27T15:35:46.207Z,18.20
2019-02-27T15:38:15.888Z,18.20
2019-02-27T15:40:45.564Z,18.20
2019-02-27T15:43:17.308Z,18.00
2019-02-27T15:45:47.975Z,17.90
2019-02-27T15:48:18.647Z,17.90
2019-02-27T15:50:48.295Z,17.90
2019-02-27T15:53:18.230Z,17.80
2019-02-27T15:55:47.814Z,17.70
2019-02-27T15:58:17.858Z,17.70
2019-02-27T16:00:52.181Z,17.60
2019-02-27T16:03:19.163Z,17.50
2019-02-27T16:05:48.793Z,17.50
2019-02-27T16:08:22.481Z,17.40
2019-02-27T16:10:54.750Z,17.30
2019-02-27T16:13:21.417Z,17.30
2019-02-27T16:15:51.476Z,17.20
2019-02-27T16:18:21.264Z,17.20
2019-02-27T16:20:50.940Z,17.20
2019-02-27T16:23:20.625Z,17.10
2019-02-27T16:25:54.137Z,16.90
2019-02-27T16:28:21.406Z,16.80
2019-02-27T16:30:51.086Z,16.60
2019-02-27T16:33:24.038Z,16.50
2019-02-27T16:35:52.799Z,16.40
2019-02-27T16:38:22.492Z,16.40
2019-02-27T16:40:53.463Z,16.20
2019-02-27T16:43:23.302Z,16.00
2019-02-27T16:45:53.306Z,15.80
2019-02-27T16:48:22.954Z,15.60
2019-02-27T16:50:52.679Z,15.30
2019-02-27T16:53:22.334Z,15.20
2019-02-27T16:55:52.259Z,15.10
2019-02-27T16:58:21.864Z,14.90
2019-02-27T17:00:55.421Z,14.70
2019-02-27T17:03:24.072Z,14.60
2019-02-27T17:05:54.203Z,14.60
2019-02-27T17:08:23.884Z,14.30
2019-02-27T17:10:53.612Z,14.10
2019-02-27T17:13:23.785Z,14.00
2019-02-27T17:15:53.447Z,13.90
2019-02-27T17:18:27.840Z,13.80
2019-02-27T17:20:54.810Z,13.60
2019-02-27T17:23:25.007Z,13.50
2019-02-27T17:25:54.985Z,13.30
2019-02-27T17:28:24.670Z,13.20
2019-02-27T17:30:54.669Z,13.10
2019-02-27T17:33:24.781Z,13.10
2019-02-27T17:35:58.504Z,12.80
2019-02-27T17:38:25.928Z,12.70
2019-02-27T17:40:55.626Z,12.50
2019-02-27T17:43:29.535Z,12.40
2019-02-27T17:45:57.593Z,12.30
2019-02-27T17:48:27.650Z,12.20
2019-02-27T17:50:57.433Z,12.20
2019-02-27T17:53:27.405Z,12.10
2019-02-27T17:55:57.059Z,12.10
2019-02-27T17:58:31.885Z,12.00
2019-02-27T18:01:02.059Z,11.90
2019-02-27T18:03:31.704Z,11.80
2019-02-27T18:06:01.313Z,11.70
2019-02-27T18:08:31.442Z,11.60
2019-02-27T18:11:01.100Z,11.60
2019-02-27T18:13:35.358Z,11.60
2019-02-27T18:16:02.190Z,11.50
2019-02-27T18:18:31.895Z,11.40
2019-02-27T18:21:01.506Z,11.20
2019-02-27T18:23:31.464Z,11.20
2019-02-27T18:26:01.336Z,11.10
2019-02-27T18:28:32.934Z,11.10
2019-02-27T18:31:02.288Z,11.00
2019-02-27T18:33:32.371Z,10.80
2019-02-27T18:36:04.877Z,10.80
2019-02-27T18:38:33.233Z,10.80
2019-02-27T18:41:02.961Z,10.70
2019-02-27T18:43:32.624Z,10.60
2019-02-27T18:46:02.288Z,10.50
2019-02-27T18:48:32.050Z,10.50
2019-02-27T18:51:02.007Z,10.40
2019-02-27T18:53:32.341Z,10.50
2019-02-27T18:56:02.747Z,10.40
2019-02-27T18:58:32.346Z,10.40
2019-02-27T19:01:02.190Z,10.30
2019-02-27T19:03:31.891Z,10.30
2019-02-27T19:06:01.728Z,10.20
2019-02-27T19:08:31.951Z,10.10
2019-02-27T19:11:01.654Z,10.10
2019-02-27T19:13:32.348Z,10.00
2019-02-27T19:16:02.093Z,9.90
2019-02-27T19:18:32.077Z,9.80
2019-02-27T19:21:01.887Z,9.80
2019-02-27T19:23:31.598Z,9.80
2019-02-27T19:26:01.721Z,9.80
2019-02-27T19:28:31.440Z,9.80
2019-02-27T19:31:01.587Z,9.70
2019-02-27T19:33:32.510Z,9.60
2019-02-27T19:36:02.928Z,9.60
2019-02-27T19:38:32.904Z,9.50
2019-02-27T19:41:04.139Z,9.40
2019-02-27T19:43:34.342Z,9.40
2019-02-27T19:46:04.249Z,9.30
2019-02-27T19:48:33.871Z,9.30
2019-02-27T19:51:03.542Z,9.20
2019-02-27T19:53:33.229Z,9.10
2019-02-27T19:56:03.058Z,9.00
2019-02-27T19:58:33.240Z,9.00
2019-02-27T20:01:03.431Z,9.00
2019-02-27T20:03:35.454Z,8.90
2019-02-27T20:06:05.432Z,8.90
2019-02-27T20:08:37.267Z,8.90
2019-02-27T20:11:07.446Z,8.90
2019-02-27T20:13:38.154Z,8.90
2019-02-27T20:16:08.062Z,8.90
2019-02-27T20:18:40.541Z,8.90
2019-02-27T20:21:10.522Z,8.80
2019-02-27T20:23:40.410Z,8.70
2019-02-27T20:26:14.085Z,8.70
2019-02-27T20:28:41.638Z,8.60
2019-02-27T20:31:11.298Z,8.50
2019-02-27T20:33:41.075Z,8.60
2019-02-27T20:36:11.268Z,8.60
2019-02-27T20:38:41.691Z,8.60
2019-02-27T20:41:12.819Z,8.60
2019-02-27T20:43:42.543Z,8.60
2019-02-27T20:46:14.692Z,8.70
2019-02-27T20:48:44.516Z,8.60
2019-02-27T20:51:15.208Z,8.30
2019-02-27T20:53:45.111Z,8.20
2019-02-27T20:56:15.150Z,8.10
2019-02-27T20:58:44.815Z,8.20
2019-02-27T21:01:14.474Z,8.30
2019-02-27T21:03:44.130Z,8.30
2019-02-27T21:06:13.946Z,8.20
2019-02-27T21:08:43.637Z,8.20
2019-02-27T21:11:13.742Z,8.20
2019-02-27T21:13:43.895Z,8.10
2019-02-27T21:16:13.565Z,8.00
2019-02-27T21:18:43.567Z,7.80
2019-02-27T21:21:13.451Z,7.80
2019-02-27T21:23:43.046Z,7.80
2019-02-27T21:26:12.962Z,7.70
2019-02-27T21:28:42.932Z,7.70
2019-02-27T21:31:13.042Z,7.70
2019-02-27T21:33:45.719Z,7.70
2019-02-27T21:36:14.741Z,7.70
2019-02-27T21:38:47.506Z,7.80
2019-02-27T21:41:16.176Z,7.80
2019-02-27T21:43:45.920Z,7.80
2019-02-27T21:46:15.558Z,7.80
2019-02-27T21:48:45.712Z,7.80
2019-02-27T21:51:16.264Z,7.70
2019-02-27T21:53:45.998Z,7.80
2019-02-27T21:56:18.093Z,7.90
2019-02-27T21:58:48.713Z,7.90
2019-02-27T22:01:19.242Z,8.00
2019-02-27T22:03:50.727Z,8.00
2019-02-27T22:06:21.672Z,8.00
2019-02-27T22:08:51.702Z,8.10
2019-02-27T22:11:24.253Z,8.20
2019-02-27T22:13:53.268Z,8.10
2019-02-27T22:16:23.620Z,8.00
2019-02-27T22:18:53.783Z,8.00
2019-02-27T22:21:23.822Z,8.00
2019-02-27T22:23:53.827Z,8.00
2019-02-27T22:26:23.937Z,8.00
2019-02-27T22:28:54.387Z,7.90
2019-02-27T22:31:25.052Z,7.90
2019-02-27T22:33:56.233Z,7.90
2019-02-27T22:36:27.500Z,8.00
2019-02-27T22:39:00.253Z,7.90
2019-02-27T22:41:28.552Z,8.00
2019-02-27T22:43:58.775Z,8.00
2019-02-27T22:46:28.406Z,8.00
2019-02-27T22:48:59.972Z,8.00
2019-02-27T22:51:29.560Z,7.90
2019-02-27T22:53:59.442Z,7.80
2019-02-27T22:56:30.929Z,7.90
2019-02-27T22:59:03.004Z,7.80
2019-02-27T23:01:49.258Z,7.90
2019-02-27T23:04:16.527Z,7.80
2019-02-27T23:06:47.169Z,7.70
2019-02-27T23:09:19.751Z,7.60
2019-02-27T23:11:50.372Z,7.50
2019-02-27T23:14:20.156Z,7.60
2019-02-27T23:16:50.537Z,7.70
2019-02-27T23:19:20.306Z,7.70
2019-02-27T23:21:50.302Z,7.70
2019-02-27T23:24:20.438Z,7.60
2019-02-27T23:26:54.171Z,7.70
2019-02-27T23:29:21.897Z,7.70
2019-02-27T23:31:54.816Z,7.60
2019-02-27T23:34:23.171Z,7.60
2019-02-27T23:36:55.642Z,7.60
2019-02-27T23:39:24.403Z,7.60
2019-02-27T23:41:56.583Z,7.60
2019-02-27T23:44:26.394Z,7.60
2019-02-27T23:46:57.482Z,7.60
2019-02-27T23:49:28.275Z,7.50
2019-02-27T23:51:58.171Z,7.50
2019-02-27T23:54:27.987Z,7.40
2019-02-27T23:56:57.835Z,7.30
2019-02-27T23:59:27.525Z,7.20
